THY2UB LTFM-LTDA
Flight info
| Callsign | THY2UB |
|---|---|
| Flight time | 1h 24m |
| Altitude | 35000 |
| Route | VICEN1D/35L VICEN UT57 VEVUD UT341 BAG UW75 AZBUL UL601 URGUP UW75 KEMER UL601 ADA |
| Aircraft | A320/M-SDE3FGHIRWY/LB1 |
Departure
| Time | 2026-05-05 13:35 |
|---|---|
| Airport | İstanbul Airport (LTFM) |
Arrival
| Time | 2026-05-05 14:59 |
|---|---|
| Airport | Hatay Airport (LTDA) |
| Time | Latitude | Longitude | Altitude | Speed | Heading |
|---|---|---|---|---|---|
| 2026-05-05 13:17 | 41.26247 | 28.73646 | 332 ft | 0 kts | 71° |
| 2026-05-05 13:22 | 41.26241 | 28.73621 | 334 ft | 4 kts | 76° |
| 2026-05-05 13:23 | 41.26237 | 28.73586 | 334 ft | 4 kts | 86° |
| 2026-05-05 13:23 | 41.26237 | 28.73550 | 331 ft | 4 kts | 102° |
| 2026-05-05 13:23 | 41.26247 | 28.73519 | 332 ft | 4 kts | 139° |
| 2026-05-05 13:23 | 41.26256 | 28.73510 | 334 ft | 0 kts | 163° |
| 2026-05-05 13:29 | 41.26247 | 28.73514 | 334 ft | 2 kts | 163° |
| 2026-05-05 13:29 | 41.26229 | 28.73506 | 334 ft | 3 kts | 228° |
| 2026-05-05 13:30 | 41.26223 | 28.73471 | 332 ft | 5 kts | 263° |
| 2026-05-05 13:30 | 41.26221 | 28.73417 | 329 ft | 7 kts | 268° |
| 2026-05-05 13:30 | 41.26220 | 28.73344 | 333 ft | 9 kts | 268° |
| 2026-05-05 13:30 | 41.26218 | 28.73253 | 333 ft | 11 kts | 269° |
| 2026-05-05 13:31 | 41.26216 | 28.73148 | 333 ft | 12 kts | 269° |
| 2026-05-05 13:31 | 41.26215 | 28.73028 | 331 ft | 14 kts | 269° |
| 2026-05-05 13:31 | 41.26213 | 28.72887 | 334 ft | 16 kts | 269° |
| 2026-05-05 13:31 | 41.26212 | 28.72742 | 330 ft | 12 kts | 269° |
| 2026-05-05 13:32 | 41.26211 | 28.72661 | 334 ft | 1 kts | 269° |
| 2026-05-05 13:32 | 41.26211 | 28.72646 | 330 ft | 3 kts | 269° |
| 2026-05-05 13:32 | 41.26210 | 28.72613 | 333 ft | 4 kts | 269° |
| 2026-05-05 13:32 | 41.26210 | 28.72563 | 334 ft | 6 kts | 276° |
| 2026-05-05 13:33 | 41.26248 | 28.72527 | 332 ft | 8 kts | 345° |
| 2026-05-05 13:33 | 41.26276 | 28.72524 | 334 ft | 0 kts | 357° |
| 2026-05-05 13:33 | 41.26278 | 28.72523 | 332 ft | 1 kts | 357° |
| 2026-05-05 13:33 | 41.26285 | 28.72523 | 334 ft | 0 kts | 358° |
| 2026-05-05 13:34 | 41.26484 | 28.72515 | 330 ft | 63 kts | 358° |
| 2026-05-05 13:34 | 41.27133 | 28.72500 | 334 ft | 120 kts | 359° |
| 2026-05-05 13:34 | 41.28101 | 28.72487 | 369 ft | 159 kts | 360° |
| 2026-05-05 13:35 | 41.29191 | 28.72509 | 993 ft | 156 kts | 2° |
| 2026-05-05 13:35 | 41.30292 | 28.72514 | 1602 ft | 159 kts | 0° |
| 2026-05-05 13:35 | 41.31398 | 28.72479 | 2255 ft | 158 kts | 359° |
| 2026-05-05 13:35 | 41.32535 | 28.72471 | 2717 ft | 173 kts | 0° |
| 2026-05-05 13:36 | 41.33804 | 28.72483 | 3003 ft | 193 kts | 0° |
| 2026-05-05 13:36 | 41.35227 | 28.72498 | 3252 ft | 217 kts | 0° |
| 2026-05-05 13:36 | 41.36819 | 28.72428 | 3620 ft | 241 kts | 348° |
| 2026-05-05 13:36 | 41.38284 | 28.71263 | 4229 ft | 257 kts | 310° |
| 2026-05-05 13:37 | 41.38966 | 28.69056 | 5043 ft | 266 kts | 278° |
| 2026-05-05 13:37 | 41.38962 | 28.66571 | 5932 ft | 271 kts | 267° |
| 2026-05-05 13:37 | 41.38727 | 28.64057 | 6810 ft | 274 kts | 265° |
| 2026-05-05 13:37 | 41.38469 | 28.61525 | 7648 ft | 278 kts | 265° |
| 2026-05-05 13:38 | 41.38087 | 28.58976 | 8427 ft | 286 kts | 250° |
| 2026-05-05 13:38 | 41.36960 | 28.56765 | 9182 ft | 295 kts | 224° |
| 2026-05-05 13:38 | 41.35185 | 28.55353 | 9915 ft | 303 kts | 197° |
| 2026-05-05 13:38 | 41.33065 | 28.55103 | 10439 ft | 317 kts | 176° |
| 2026-05-05 13:39 | 41.30784 | 28.55273 | 10628 ft | 340 kts | 178° |
| 2026-05-05 13:39 | 41.28342 | 28.55473 | 10773 ft | 363 kts | 172° |
| 2026-05-05 13:39 | 41.25837 | 28.56245 | 11178 ft | 374 kts | 160° |
| 2026-05-05 13:39 | 41.23501 | 28.57684 | 11784 ft | 377 kts | 147° |
| 2026-05-05 13:40 | 41.21402 | 28.59780 | 12400 ft | 379 kts | 135° |
| 2026-05-05 13:40 | 41.19502 | 28.62231 | 13021 ft | 382 kts | 134° |
| 2026-05-05 13:40 | 41.17588 | 28.64698 | 13679 ft | 385 kts | 134° |
| 2026-05-05 13:40 | 41.15657 | 28.67173 | 14298 ft | 388 kts | 134° |
| 2026-05-05 13:41 | 41.13708 | 28.69670 | 14893 ft | 390 kts | 133° |
| 2026-05-05 13:41 | 41.11956 | 28.72420 | 15444 ft | 391 kts | 123° |
| 2026-05-05 13:41 | 41.10461 | 28.75452 | 15998 ft | 394 kts | 121° |
| 2026-05-05 13:41 | 41.08966 | 28.78510 | 16549 ft | 397 kts | 121° |
| 2026-05-05 13:42 | 41.07455 | 28.81586 | 17098 ft | 399 kts | 121° |
| 2026-05-05 13:42 | 41.05923 | 28.84666 | 17614 ft | 403 kts | 124° |
| 2026-05-05 13:42 | 41.04056 | 28.87457 | 18120 ft | 408 kts | 137° |
| 2026-05-05 13:42 | 41.01740 | 28.89653 | 18633 ft | 413 kts | 150° |
| 2026-05-05 13:43 | 40.99079 | 28.91125 | 19141 ft | 417 kts | 163° |
| 2026-05-05 13:43 | 40.96208 | 28.91773 | 19622 ft | 422 kts | 177° |
| 2026-05-05 13:43 | 40.93274 | 28.91599 | 20101 ft | 424 kts | 186° |
| 2026-05-05 13:43 | 40.90322 | 28.91221 | 20578 ft | 428 kts | 186° |
| 2026-05-05 13:44 | 40.87382 | 28.90933 | 21008 ft | 431 kts | 181° |
| 2026-05-05 13:44 | 40.84334 | 28.91108 | 21427 ft | 434 kts | 176° |
| 2026-05-05 13:44 | 40.81349 | 28.91359 | 21843 ft | 437 kts | 176° |
| 2026-05-05 13:44 | 40.78309 | 28.91614 | 22226 ft | 440 kts | 177° |
| 2026-05-05 13:45 | 40.75242 | 28.91867 | 22607 ft | 443 kts | 177° |
| 2026-05-05 13:45 | 40.72152 | 28.92118 | 22994 ft | 446 kts | 177° |
| 2026-05-05 13:45 | 40.69048 | 28.92368 | 23363 ft | 449 kts | 177° |
| 2026-05-05 13:45 | 40.65921 | 28.92670 | 23727 ft | 452 kts | 172° |
| 2026-05-05 13:46 | 40.62882 | 28.93786 | 24055 ft | 456 kts | 156° |
| 2026-05-05 13:46 | 40.60196 | 28.95996 | 24396 ft | 458 kts | 138° |
| 2026-05-05 13:46 | 40.58092 | 28.99138 | 24741 ft | 459 kts | 121° |
| 2026-05-05 13:46 | 40.56749 | 29.02919 | 25074 ft | 457 kts | 104° |
| 2026-05-05 13:47 | 40.56258 | 29.07021 | 25395 ft | 455 kts | 88° |
| 2026-05-05 13:47 | 40.56472 | 29.11164 | 25725 ft | 454 kts | 82° |
| 2026-05-05 13:47 | 40.56768 | 29.15312 | 26075 ft | 456 kts | 82° |
| 2026-05-05 13:47 | 40.57064 | 29.19475 | 26429 ft | 458 kts | 82° |
| 2026-05-05 13:48 | 40.57365 | 29.23658 | 26768 ft | 460 kts | 82° |
| 2026-05-05 13:48 | 40.57668 | 29.27861 | 27098 ft | 462 kts | 82° |
| 2026-05-05 13:48 | 40.57968 | 29.32062 | 27547 ft | 461 kts | 82° |
| 2026-05-05 13:48 | 40.58260 | 29.36257 | 28016 ft | 460 kts | 82° |
| 2026-05-05 13:49 | 40.58548 | 29.40436 | 28462 ft | 459 kts | 81° |
| 2026-05-05 13:49 | 40.58845 | 29.44612 | 28900 ft | 457 kts | 81° |
| 2026-05-05 13:49 | 40.59188 | 29.48712 | 29332 ft | 456 kts | 79° |
| 2026-05-05 13:49 | 40.59577 | 29.52852 | 29765 ft | 455 kts | 79° |
| 2026-05-05 13:50 | 40.59985 | 29.56977 | 30194 ft | 454 kts | 78° |
| 2026-05-05 13:50 | 40.60394 | 29.61088 | 30628 ft | 453 kts | 78° |
| 2026-05-05 13:50 | 40.60795 | 29.65202 | 31063 ft | 452 kts | 78° |
| 2026-05-05 13:50 | 40.61184 | 29.69304 | 31486 ft | 451 kts | 79° |
| 2026-05-05 13:51 | 40.61562 | 29.73397 | 31889 ft | 451 kts | 79° |
| 2026-05-05 13:51 | 40.61810 | 29.76112 | 32158 ft | 450 kts | 79° |
| 2026-05-05 13:51 | 40.62176 | 29.80200 | 32568 ft | 450 kts | 79° |
| 2026-05-05 13:51 | 40.62539 | 29.84291 | 32977 ft | 449 kts | 79° |
| 2026-05-05 13:52 | 40.62902 | 29.88368 | 33387 ft | 448 kts | 79° |
| 2026-05-05 13:52 | 40.63262 | 29.92441 | 33796 ft | 447 kts | 79° |
| 2026-05-05 13:52 | 40.63740 | 29.97876 | 34313 ft | 447 kts | 79° |
| 2026-05-05 13:52 | 40.63979 | 30.00573 | 34567 ft | 446 kts | 79° |
| 2026-05-05 13:53 | 40.64340 | 30.04629 | 34927 ft | 446 kts | 78° |
| 2026-05-05 13:53 | 40.64703 | 30.08691 | 35058 ft | 447 kts | 78° |
| 2026-05-05 13:53 | 40.65440 | 30.16941 | 35080 ft | 457 kts | 79° |
| 2026-05-05 13:54 | 40.65732 | 30.25301 | 35073 ft | 466 kts | 92° |
| 2026-05-05 13:54 | 40.63964 | 30.33577 | 35074 ft | 477 kts | 113° |
| 2026-05-05 13:55 | 40.60256 | 30.40867 | 35088 ft | 482 kts | 125° |
| 2026-05-05 13:55 | 40.56144 | 30.47843 | 35076 ft | 482 kts | 123° |
| 2026-05-05 13:56 | 40.53032 | 30.55547 | 35079 ft | 474 kts | 105° |
| 2026-05-05 13:56 | 40.51404 | 30.63876 | 35069 ft | 470 kts | 99° |
| 2026-05-05 13:57 | 40.49924 | 30.72178 | 35067 ft | 470 kts | 99° |
| 2026-05-05 13:57 | 40.48217 | 30.80488 | 35060 ft | 472 kts | 103° |
| 2026-05-05 13:58 | 40.46199 | 30.88711 | 35060 ft | 474 kts | 104° |
| 2026-05-05 13:58 | 40.44133 | 30.96926 | 35067 ft | 473 kts | 104° |
| 2026-05-05 13:59 | 40.41167 | 31.09269 | 35069 ft | 473 kts | 103° |
| 2026-05-05 14:00 | 40.38244 | 31.21622 | 35063 ft | 472 kts | 102° |
| 2026-05-05 14:00 | 40.36829 | 31.29994 | 35056 ft | 470 kts | 98° |
| 2026-05-05 14:01 | 40.35469 | 31.38379 | 35054 ft | 470 kts | 98° |
| 2026-05-05 14:01 | 40.34102 | 31.46755 | 35049 ft | 470 kts | 98° |
| 2026-05-05 14:02 | 40.32726 | 31.55146 | 35044 ft | 471 kts | 98° |
| 2026-05-05 14:02 | 40.31342 | 31.63537 | 35043 ft | 471 kts | 98° |
| 2026-05-05 14:03 | 40.29955 | 31.71922 | 35037 ft | 472 kts | 98° |
| 2026-05-05 14:03 | 40.28559 | 31.80316 | 35032 ft | 472 kts | 98° |
| 2026-05-05 14:04 | 40.27152 | 31.88709 | 35024 ft | 471 kts | 98° |
| 2026-05-05 14:04 | 40.25629 | 31.97077 | 35020 ft | 474 kts | 101° |
| 2026-05-05 14:05 | 40.23803 | 32.05384 | 35005 ft | 475 kts | 103° |
| 2026-05-05 14:05 | 40.21909 | 32.13615 | 35007 ft | 475 kts | 103° |
| 2026-05-05 14:06 | 40.20057 | 32.21919 | 35010 ft | 475 kts | 102° |
| 2026-05-05 14:06 | 40.18251 | 32.30242 | 35009 ft | 475 kts | 102° |
| 2026-05-05 14:07 | 40.16441 | 32.38553 | 35010 ft | 475 kts | 102° |
| 2026-05-05 14:07 | 40.14608 | 32.46852 | 35001 ft | 474 kts | 102° |
| 2026-05-05 14:08 | 40.12773 | 32.55129 | 34997 ft | 474 kts | 103° |
| 2026-05-05 14:08 | 40.10931 | 32.63397 | 34997 ft | 474 kts | 103° |
| 2026-05-05 14:09 | 40.09086 | 32.71653 | 35003 ft | 473 kts | 104° |
| 2026-05-05 14:09 | 40.06212 | 32.79341 | 35001 ft | 479 kts | 124° |
| 2026-05-05 14:10 | 40.01486 | 32.85484 | 34996 ft | 483 kts | 144° |
| 2026-05-05 14:10 | 39.95805 | 32.90172 | 34984 ft | 483 kts | 147° |
| 2026-05-05 14:11 | 39.90106 | 32.94835 | 34978 ft | 484 kts | 147° |
| 2026-05-05 14:11 | 39.84395 | 32.99511 | 34985 ft | 484 kts | 147° |
| 2026-05-05 14:12 | 39.78689 | 33.04169 | 34998 ft | 484 kts | 147° |
| 2026-05-05 14:12 | 39.72976 | 33.08824 | 35003 ft | 484 kts | 147° |
| 2026-05-05 14:13 | 39.67269 | 33.13452 | 34998 ft | 484 kts | 148° |
| 2026-05-05 14:13 | 39.61564 | 33.18069 | 35000 ft | 483 kts | 148° |
| 2026-05-05 14:14 | 39.55898 | 33.22651 | 34997 ft | 482 kts | 148° |
| 2026-05-05 14:14 | 39.50204 | 33.27262 | 35004 ft | 483 kts | 148° |
| 2026-05-05 14:15 | 39.44506 | 33.31856 | 35005 ft | 482 kts | 148° |
| 2026-05-05 14:15 | 39.38682 | 33.36155 | 35011 ft | 481 kts | 152° |
| 2026-05-05 14:16 | 39.32822 | 33.40334 | 35007 ft | 481 kts | 149° |
| 2026-05-05 14:16 | 39.27096 | 33.44806 | 35005 ft | 480 kts | 148° |
| 2026-05-05 14:17 | 39.21414 | 33.49363 | 35000 ft | 480 kts | 148° |
| 2026-05-05 14:17 | 39.15764 | 33.53837 | 35004 ft | 480 kts | 149° |
| 2026-05-05 14:18 | 39.10052 | 33.58286 | 35001 ft | 480 kts | 149° |
| 2026-05-05 14:18 | 39.04328 | 33.62730 | 35008 ft | 480 kts | 149° |
| 2026-05-05 14:19 | 38.98604 | 33.67173 | 35009 ft | 480 kts | 149° |
| 2026-05-05 14:19 | 38.92882 | 33.71612 | 35002 ft | 480 kts | 149° |
| 2026-05-05 14:20 | 38.87151 | 33.76048 | 35003 ft | 480 kts | 149° |
| 2026-05-05 14:20 | 38.81422 | 33.80467 | 35000 ft | 481 kts | 149° |
| 2026-05-05 14:21 | 38.75684 | 33.84882 | 35007 ft | 481 kts | 149° |
| 2026-05-05 14:21 | 38.69994 | 33.89264 | 35011 ft | 480 kts | 149° |
| 2026-05-05 14:22 | 38.64274 | 33.93673 | 35004 ft | 480 kts | 149° |
| 2026-05-05 14:22 | 38.58553 | 33.98069 | 35005 ft | 480 kts | 149° |
| 2026-05-05 14:23 | 38.52827 | 34.02445 | 35009 ft | 479 kts | 150° |
| 2026-05-05 14:23 | 38.47114 | 34.06811 | 35012 ft | 478 kts | 150° |
| 2026-05-05 14:24 | 38.41406 | 34.11152 | 35016 ft | 477 kts | 150° |
| 2026-05-05 14:24 | 38.35693 | 34.15474 | 35010 ft | 477 kts | 150° |
| 2026-05-05 14:25 | 38.29982 | 34.19797 | 35010 ft | 477 kts | 150° |
| 2026-05-05 14:25 | 38.24268 | 34.24115 | 35010 ft | 478 kts | 150° |
| 2026-05-05 14:26 | 38.18549 | 34.28433 | 35018 ft | 477 kts | 150° |
| 2026-05-05 14:26 | 38.12835 | 34.32739 | 35009 ft | 477 kts | 150° |
| 2026-05-05 14:27 | 38.07130 | 34.37027 | 35012 ft | 477 kts | 150° |
| 2026-05-05 14:27 | 38.01444 | 34.41287 | 35007 ft | 477 kts | 150° |
| 2026-05-05 14:28 | 37.95729 | 34.45570 | 35009 ft | 477 kts | 150° |
| 2026-05-05 14:28 | 37.90008 | 34.49859 | 35004 ft | 478 kts | 151° |
| 2026-05-05 14:29 | 37.84291 | 34.54169 | 35004 ft | 478 kts | 150° |
| 2026-05-05 14:29 | 37.78595 | 34.58524 | 35003 ft | 478 kts | 150° |
| 2026-05-05 14:30 | 37.72906 | 34.62869 | 34984 ft | 477 kts | 151° |
| 2026-05-05 14:30 | 37.67212 | 34.67180 | 34984 ft | 477 kts | 151° |
| 2026-05-05 14:31 | 37.64367 | 34.69331 | 34777 ft | 476 kts | 151° |
| 2026-05-05 14:31 | 37.61524 | 34.71481 | 34527 ft | 475 kts | 151° |
| 2026-05-05 14:31 | 37.58690 | 34.73625 | 34277 ft | 475 kts | 151° |
| 2026-05-05 14:31 | 37.55848 | 34.75751 | 34025 ft | 474 kts | 152° |
| 2026-05-05 14:32 | 37.53003 | 34.77857 | 33773 ft | 474 kts | 152° |
| 2026-05-05 14:32 | 37.50193 | 34.79926 | 33536 ft | 474 kts | 152° |
| 2026-05-05 14:32 | 37.47302 | 34.82049 | 33281 ft | 474 kts | 152° |
| 2026-05-05 14:32 | 37.44494 | 34.84108 | 33035 ft | 474 kts | 152° |
| 2026-05-05 14:33 | 37.41646 | 34.86200 | 32785 ft | 474 kts | 152° |
| 2026-05-05 14:33 | 37.38802 | 34.88296 | 32535 ft | 473 kts | 152° |
| 2026-05-05 14:33 | 37.35962 | 34.90393 | 32284 ft | 473 kts | 152° |
| 2026-05-05 14:33 | 37.33124 | 34.92486 | 32035 ft | 473 kts | 152° |
| 2026-05-05 14:34 | 37.30282 | 34.94576 | 31783 ft | 473 kts | 152° |
| 2026-05-05 14:34 | 37.27444 | 34.96658 | 31534 ft | 473 kts | 152° |
| 2026-05-05 14:34 | 37.24603 | 34.98738 | 31281 ft | 472 kts | 152° |
| 2026-05-05 14:34 | 37.21765 | 35.00816 | 31032 ft | 472 kts | 152° |
| 2026-05-05 14:35 | 37.18928 | 35.02893 | 30781 ft | 472 kts | 152° |
| 2026-05-05 14:35 | 37.16097 | 35.04968 | 30536 ft | 472 kts | 152° |
| 2026-05-05 14:35 | 37.13255 | 35.07051 | 30280 ft | 472 kts | 152° |
| 2026-05-05 14:35 | 37.10422 | 35.09125 | 30030 ft | 471 kts | 152° |
| 2026-05-05 14:36 | 37.07590 | 35.11191 | 29779 ft | 471 kts | 152° |
| 2026-05-05 14:36 | 37.04760 | 35.13250 | 29527 ft | 471 kts | 153° |
| 2026-05-05 14:36 | 37.01925 | 35.15307 | 29277 ft | 471 kts | 152° |
| 2026-05-05 14:36 | 36.99094 | 35.17363 | 29026 ft | 471 kts | 152° |
| 2026-05-05 14:37 | 36.96336 | 35.19579 | 28775 ft | 473 kts | 145° |
| 2026-05-05 14:37 | 36.93885 | 35.22267 | 28521 ft | 475 kts | 136° |
| 2026-05-05 14:37 | 36.91754 | 35.25436 | 28290 ft | 478 kts | 127° |
| 2026-05-05 14:37 | 36.89913 | 35.28897 | 28026 ft | 478 kts | 125° |
| 2026-05-05 14:38 | 36.88086 | 35.32371 | 27773 ft | 478 kts | 125° |
| 2026-05-05 14:38 | 36.86256 | 35.35838 | 27525 ft | 477 kts | 125° |
| 2026-05-05 14:38 | 36.84426 | 35.39298 | 27275 ft | 477 kts | 126° |
| 2026-05-05 14:38 | 36.82596 | 35.42749 | 27024 ft | 476 kts | 126° |
| 2026-05-05 14:39 | 36.80768 | 35.46192 | 26674 ft | 475 kts | 126° |
| 2026-05-05 14:39 | 36.78940 | 35.49635 | 25491 ft | 478 kts | 126° |
| 2026-05-05 14:39 | 36.77692 | 35.51981 | 24700 ft | 481 kts | 125° |
| 2026-05-05 14:39 | 36.75864 | 35.55419 | 23911 ft | 464 kts | 125° |
| 2026-05-05 14:40 | 36.74128 | 35.58689 | 23144 ft | 442 kts | 125° |
| 2026-05-05 14:40 | 36.72467 | 35.61811 | 22420 ft | 423 kts | 125° |
| 2026-05-05 14:40 | 36.70889 | 35.64768 | 21729 ft | 407 kts | 126° |
| 2026-05-05 14:40 | 36.69324 | 35.67698 | 21059 ft | 407 kts | 126° |
| 2026-05-05 14:41 | 36.67755 | 35.70629 | 20376 ft | 405 kts | 126° |
| 2026-05-05 14:41 | 36.66199 | 35.73536 | 19700 ft | 402 kts | 126° |
| 2026-05-05 14:41 | 36.64654 | 35.76426 | 19030 ft | 398 kts | 126° |
| 2026-05-05 14:41 | 36.63129 | 35.79282 | 18381 ft | 395 kts | 126° |
| 2026-05-05 14:42 | 36.61609 | 35.82126 | 17750 ft | 394 kts | 126° |
| 2026-05-05 14:42 | 36.60090 | 35.84960 | 17124 ft | 392 kts | 126° |
| 2026-05-05 14:42 | 36.58583 | 35.87766 | 16538 ft | 387 kts | 126° |
| 2026-05-05 14:42 | 36.57110 | 35.90507 | 15988 ft | 373 kts | 126° |
| 2026-05-05 14:43 | 36.55722 | 35.93102 | 15791 ft | 346 kts | 126° |
| 2026-05-05 14:43 | 36.54437 | 35.95502 | 15665 ft | 322 kts | 126° |
| 2026-05-05 14:43 | 36.53235 | 35.97739 | 15545 ft | 301 kts | 127° |
| 2026-05-05 14:43 | 36.52104 | 35.99835 | 15403 ft | 283 kts | 127° |
| 2026-05-05 14:44 | 36.51025 | 36.01832 | 15037 ft | 275 kts | 128° |
| 2026-05-05 14:44 | 36.49963 | 36.03796 | 14569 ft | 272 kts | 127° |
| 2026-05-05 14:44 | 36.48910 | 36.05742 | 14064 ft | 270 kts | 127° |
| 2026-05-05 14:44 | 36.47866 | 36.07672 | 13566 ft | 268 kts | 127° |
| 2026-05-05 14:45 | 36.46829 | 36.09588 | 13020 ft | 267 kts | 127° |
| 2026-05-05 14:45 | 36.45792 | 36.11501 | 12514 ft | 268 kts | 127° |
| 2026-05-05 14:45 | 36.44754 | 36.13420 | 12203 ft | 267 kts | 127° |
| 2026-05-05 14:45 | 36.43723 | 36.15325 | 11894 ft | 265 kts | 127° |
| 2026-05-05 14:46 | 36.42693 | 36.17223 | 11556 ft | 265 kts | 127° |
| 2026-05-05 14:46 | 36.41665 | 36.19118 | 11235 ft | 265 kts | 127° |
| 2026-05-05 14:46 | 36.40651 | 36.20986 | 10911 ft | 264 kts | 127° |
| 2026-05-05 14:46 | 36.39626 | 36.22867 | 10622 ft | 262 kts | 129° |
| 2026-05-05 14:47 | 36.38363 | 36.24463 | 10489 ft | 259 kts | 148° |
| 2026-05-05 14:47 | 36.36784 | 36.25470 | 10361 ft | 253 kts | 166° |
| 2026-05-05 14:47 | 36.35071 | 36.25826 | 10250 ft | 248 kts | 183° |
| 2026-05-05 14:47 | 36.33374 | 36.25544 | 10156 ft | 245 kts | 200° |
| 2026-05-05 14:48 | 36.31847 | 36.24684 | 9981 ft | 239 kts | 216° |
| 2026-05-05 14:48 | 36.30532 | 36.23437 | 9664 ft | 238 kts | 220° |
| 2026-05-05 14:48 | 36.29230 | 36.22171 | 9343 ft | 238 kts | 220° |
| 2026-05-05 14:48 | 36.27929 | 36.20916 | 9040 ft | 236 kts | 220° |
| 2026-05-05 14:49 | 36.26634 | 36.19665 | 8731 ft | 235 kts | 220° |
| 2026-05-05 14:49 | 36.25346 | 36.18420 | 8418 ft | 234 kts | 220° |
| 2026-05-05 14:49 | 36.24086 | 36.17205 | 8278 ft | 223 kts | 220° |
| 2026-05-05 14:49 | 36.22897 | 36.16062 | 8009 ft | 212 kts | 220° |
| 2026-05-05 14:50 | 36.21749 | 36.14958 | 7656 ft | 206 kts | 220° |
| 2026-05-05 14:50 | 36.20624 | 36.13877 | 7280 ft | 203 kts | 220° |
| 2026-05-05 14:50 | 36.19517 | 36.12813 | 6939 ft | 198 kts | 220° |
| 2026-05-05 14:50 | 36.18458 | 36.11797 | 6790 ft | 188 kts | 220° |
| 2026-05-05 14:51 | 36.17434 | 36.10811 | 6678 ft | 185 kts | 220° |
| 2026-05-05 14:51 | 36.16421 | 36.09832 | 6525 ft | 184 kts | 220° |
| 2026-05-05 14:51 | 36.15415 | 36.08861 | 6363 ft | 183 kts | 220° |
| 2026-05-05 14:51 | 36.14430 | 36.07908 | 6221 ft | 182 kts | 221° |
| 2026-05-05 14:52 | 36.13495 | 36.06866 | 6052 ft | 180 kts | 237° |
| 2026-05-05 14:52 | 36.13112 | 36.05423 | 5908 ft | 180 kts | 268° |
| 2026-05-05 14:52 | 36.13463 | 36.03943 | 5759 ft | 185 kts | 301° |
| 2026-05-05 14:52 | 36.14480 | 36.02940 | 5628 ft | 195 kts | 335° |
| 2026-05-05 14:53 | 36.15848 | 36.02887 | 5514 ft | 205 kts | 15° |
| 2026-05-05 14:53 | 36.16984 | 36.03943 | 5387 ft | 210 kts | 55° |
| 2026-05-05 14:53 | 36.17730 | 36.05511 | 5289 ft | 211 kts | 60° |
| 2026-05-05 14:53 | 36.18498 | 36.07050 | 5112 ft | 208 kts | 49° |
| 2026-05-05 14:54 | 36.19471 | 36.08335 | 4875 ft | 202 kts | 44° |
| 2026-05-05 14:54 | 36.20456 | 36.09553 | 4613 ft | 198 kts | 43° |
| 2026-05-05 14:54 | 36.21428 | 36.10736 | 4362 ft | 194 kts | 43° |
| 2026-05-05 14:54 | 36.22385 | 36.11898 | 4124 ft | 191 kts | 43° |
| 2026-05-05 14:55 | 36.23313 | 36.13028 | 3883 ft | 181 kts | 43° |
| 2026-05-05 14:55 | 36.24181 | 36.14090 | 3618 ft | 171 kts | 43° |
| 2026-05-05 14:55 | 36.25001 | 36.15093 | 3330 ft | 160 kts | 43° |
| 2026-05-05 14:55 | 36.25772 | 36.16023 | 3101 ft | 155 kts | 42° |
| 2026-05-05 14:56 | 36.26538 | 36.16944 | 2888 ft | 153 kts | 43° |
| 2026-05-05 14:56 | 36.27296 | 36.17857 | 2668 ft | 151 kts | 44° |
| 2026-05-05 14:56 | 36.28046 | 36.18761 | 2434 ft | 149 kts | 45° |
| 2026-05-05 14:56 | 36.28785 | 36.19651 | 2209 ft | 147 kts | 46° |
| 2026-05-05 14:57 | 36.29516 | 36.20528 | 1988 ft | 145 kts | 45° |
| 2026-05-05 14:57 | 36.30235 | 36.21392 | 1768 ft | 143 kts | 46° |
| 2026-05-05 14:57 | 36.30898 | 36.22298 | 1549 ft | 141 kts | 51° |
| 2026-05-05 14:57 | 36.31533 | 36.23221 | 1310 ft | 139 kts | 46° |
| 2026-05-05 14:58 | 36.32201 | 36.24085 | 1120 ft | 139 kts | 46° |
| 2026-05-05 14:58 | 36.32887 | 36.24922 | 948 ft | 138 kts | 42° |
| 2026-05-05 14:58 | 36.33585 | 36.25744 | 766 ft | 139 kts | 44° |
| 2026-05-05 14:58 | 36.34289 | 36.26547 | 571 ft | 137 kts | 41° |
| 2026-05-05 14:59 | 36.34995 | 36.27348 | 384 ft | 138 kts | 41° |
| 2026-05-05 14:59 | 36.35691 | 36.28124 | 295 ft | 123 kts | 42° |
| 2026-05-05 14:59 | 36.36207 | 36.28722 | 267 ft | 64 kts | 42° |
| 2026-05-05 14:59 | 36.36331 | 36.28861 | 268 ft | 1 kts | 42° |
| 2026-05-05 15:00 | 36.36341 | 36.28872 | 269 ft | 3 kts | 42° |
| 2026-05-05 15:00 | 36.36353 | 36.28886 | 269 ft | 4 kts | 43° |
| 2026-05-05 15:00 | 36.36395 | 36.28934 | 268 ft | 8 kts | 43° |
| 2026-05-05 15:00 | 36.36445 | 36.28991 | 268 ft | 12 kts | 43° |
| 2026-05-05 15:01 | 36.36512 | 36.29069 | 267 ft | 15 kts | 43° |
| 2026-05-05 15:01 | 36.36573 | 36.29141 | 267 ft | 7 kts | 43° |
| 2026-05-05 15:01 | 36.36596 | 36.29190 | 267 ft | 2 kts | 42° |
| 2026-05-05 15:01 | 36.36608 | 36.29182 | 267 ft | 2 kts | 326° |
| 2026-05-05 15:02 | 36.36608 | 36.29170 | 267 ft | 1 kts | 255° |
| 2026-05-05 15:02 | 36.36604 | 36.29167 | 267 ft | 1 kts | 224° |
| 2026-05-05 15:02 | 36.36595 | 36.29157 | 267 ft | 2 kts | 220° |
| 2026-05-05 15:02 | 36.36578 | 36.29140 | 268 ft | 4 kts | 220° |
| 2026-05-05 15:03 | 36.36552 | 36.29111 | 268 ft | 6 kts | 220° |
| 2026-05-05 15:03 | 36.36513 | 36.29070 | 267 ft | 9 kts | 221° |
| 2026-05-05 15:03 | 36.36460 | 36.29011 | 267 ft | 11 kts | 224° |
| 2026-05-05 15:03 | 36.36398 | 36.28937 | 268 ft | 13 kts | 224° |
| 2026-05-05 15:04 | 36.36327 | 36.28850 | 268 ft | 16 kts | 224° |
| 2026-05-05 15:04 | 36.36234 | 36.28750 | 267 ft | 19 kts | 221° |
| 2026-05-05 15:04 | 36.36129 | 36.28630 | 267 ft | 19 kts | 222° |
| 2026-05-05 15:04 | 36.36070 | 36.28516 | 265 ft | 15 kts | 290° |
| 2026-05-05 15:05 | 36.36188 | 36.28354 | 266 ft | 2 kts | 313° |
| 2026-05-05 15:05 | 36.36203 | 36.28335 | 266 ft | 4 kts | 314° |
| 2026-05-05 15:05 | 36.36234 | 36.28314 | 266 ft | 6 kts | 355° |
| 2026-05-05 15:06 | 36.36267 | 36.28354 | 266 ft | 8 kts | 59° |
| 2026-05-05 15:06 | 36.36310 | 36.28349 | 266 ft | 8 kts | 307° |
| 2026-05-05 15:06 | 36.36310 | 36.28301 | 266 ft | 3 kts | 249° |
| 2026-05-05 15:06 | 36.36300 | 36.28299 | 266 ft | 0 kts | 186° |
| 2026-05-05 15:10 | 36.36205 | 36.28160 | 266 ft | 0 kts | 240° |